7D5 weather

Priebe Airport
Findlay, Ohio, United States

Public forecast

Using degrees Fahrenheit for public forecast. Weather courtesy of forecast.io.

METAR (pilot weather report)

Closest report is Findlay Airport, 6.1 nm (11.2 km) S. Retrieved 2019/05/24 09:53 UTC (54 minutes ago):

KFDY 240953Z AUTO 00000KT 10SM CLR 13/10 A3011 RMK AO2 SLP191 T01280100

TAF (pilot weather forecast)

Closest forecast is Findlay Airport, 6.1 nm (11.2 km) S. Retrieved 2019/05/24 06:39 UTC (4 hours ago):

TAF KFDY 240536Z 2406/2506 00000KT P6SM SKC FM241500 00000KT P6SM BKN250 FM242200 12005KT P6SM BKN060 FM250300 11006KT P6SM SCT060